Time;durP1;ratioP1;P1;durP2;ratioP2;P2;SDS_P1;SDS_P2;PMS_P1;PMS_P2;Temp;Humidity;BMP_temperature;BMP_pressure;BME280_temperature;BME280_humidity;BME280_pressure;Samples;Min_cycle;Max_cycle;Signal;HPM_P1;HPM_P2
2022/12/06 00:01:37;;;;;;;13.75;7.47;;;;;;;0.87;100.00;100883.13;6306597;28;20677;-90
2022/12/06 00:04:40;;;;;;;13.23;8.05;;;;;;;0.89;100.00;100885.59;6202146;28;20050;-90
2022/12/06 00:07:41;;;;;;;11.88;7.25;;;;;;;0.82;100.00;100885.81;6203544;28;20046;-90
2022/12/06 00:10:43;;;;;;;12.02;7.60;;;;;;;0.80;100.00;100890.13;6190776;28;20124;-90
2022/12/06 00:13:46;;;;;;;11.00;7.80;;;;;;;0.85;100.00;100889.97;6190589;28;20045;-90
2022/12/06 00:16:48;;;;;;;12.63;7.18;;;;;;;0.88;100.00;100894.97;6186372;28;20144;-90
2022/12/06 00:19:50;;;;;;;11.27;7.40;;;;;;;0.82;100.00;100883.25;6203386;28;20660;-90
2022/12/06 00:22:52;;;;;;;10.77;7.90;;;;;;;0.83;100.00;100884.09;6203516;28;20154;-90
2022/12/06 00:25:53;;;;;;;11.15;7.57;;;;;;;0.89;100.00;100880.50;6203103;28;20049;-90
2022/12/06 00:28:58;;;;;;;13.35;7.78;;;;;;;0.78;100.00;100875.75;6206357;28;20058;-90
2022/12/06 00:32:00;;;;;;;11.90;7.40;;;;;;;0.82;100.00;100877.31;6195833;28;20070;-90
2022/12/06 00:35:02;;;;;;;12.50;7.32;;;;;;;0.79;100.00;100872.31;6209080;28;20058;-90
2022/12/06 00:38:03;;;;;;;12.75;7.80;;;;;;;0.76;100.00;100869.88;6214628;28;20046;-90
2022/12/06 00:41:08;;;;;;;11.70;8.35;;;;;;;0.79;100.00;100862.94;6256860;28;20056;-89
2022/12/06 00:44:10;;;;;;;12.75;8.10;;;;;;;0.71;100.00;100864.94;6305180;28;20048;-89
2022/12/06 00:47:11;;;;;;;12.13;7.93;;;;;;;0.73;100.00;100859.78;6307304;28;20506;-90
2022/12/06 00:50:13;;;;;;;10.98;7.13;;;;;;;0.74;100.00;100869.91;6310698;28;20067;-89
2022/12/06 00:53:15;;;;;;;11.63;7.68;;;;;;;0.79;100.00;100870.59;6305368;28;20512;-90
2022/12/06 00:56:18;;;;;;;12.88;8.35;;;;;;;0.77;100.00;100871.53;6301229;28;20955;-89
2022/12/06 00:59:20;;;;;;;11.30;6.95;;;;;;;0.81;100.00;100866.28;6308484;28;20830;-89
2022/12/06 01:02:22;;;;;;;9.82;7.45;;;;;;;0.80;100.00;100876.56;6310146;28;20551;-89
2022/12/06 01:05:23;;;;;;;9.13;6.93;;;;;;;0.82;100.00;100872.22;6307312;28;20044;-89
2022/12/06 01:08:25;;;;;;;9.90;6.60;;;;;;;0.79;100.00;100874.88;6308094;28;20052;-89
2022/12/06 01:11:27;;;;;;;10.88;7.47;;;;;;;0.78;100.00;100874.03;6303623;28;20028;-89
2022/12/06 01:14:29;;;;;;;11.52;7.65;;;;;;;0.75;100.00;100874.16;6306323;28;20161;-89
2022/12/06 01:17:31;;;;;;;11.40;7.50;;;;;;;0.79;100.00;100873.16;6299633;28;20036;-89
2022/12/06 01:20:33;;;;;;;11.10;6.97;;;;;;;0.78;100.00;100879.13;6309497;28;20032;-89
2022/12/06 01:23:35;;;;;;;11.85;6.75;;;;;;;0.75;100.00;100874.16;6300737;28;20047;-90
2022/12/06 01:26:37;;;;;;;10.38;7.57;;;;;;;0.75;100.00;100888.59;6306248;28;20040;-89
2022/12/06 01:29:38;;;;;;;9.45;6.07;;;;;;;0.71;100.00;100887.03;6308828;28;20028;-89
2022/12/06 01:32:40;;;;;;;9.23;6.55;;;;;;;0.74;100.00;100886.94;6296610;28;20119;-90
2022/12/06 01:35:42;;;;;;;10.15;7.30;;;;;;;0.77;100.00;100882.59;6306369;28;20076;-89
2022/12/06 01:38:48;;;;;;;10.45;6.63;;;;;;;0.83;100.00;100882.38;6309807;28;20040;-89
2022/12/06 01:41:50;;;;;;;8.30;6.55;;;;;;;0.79;100.00;100875.69;6303844;28;20051;-89
2022/12/06 01:44:53;;;;;;;8.73;6.07;;;;;;;0.76;100.00;100875.81;6309378;28;20051;-89
2022/12/06 01:47:55;;;;;;;8.82;6.60;;;;;;;0.69;100.00;100870.97;6308960;28;20142;-89
2022/12/06 01:50:59;;;;;;;10.02;6.63;;;;;;;0.69;100.00;100873.50;6309302;28;20051;-89
2022/12/06 01:54:03;;;;;;;8.90;6.30;;;;;;;0.75;100.00;100874.16;6303434;28;20094;-89
2022/12/06 01:57:09;;;;;;;10.77;5.95;;;;;;;0.64;100.00;100877.03;6293372;28;20044;-89
2022/12/06 02:00:11;;;;;;;7.55;5.55;;;;;;;0.65;100.00;100872.78;6308959;28;20051;-88
2022/12/06 02:03:20;;;;;;;8.32;6.05;;;;;;;0.61;100.00;100872.03;6308642;28;20036;-88
2022/12/06 02:06:22;;;;;;;9.32;6.47;;;;;;;0.59;100.00;100871.25;6307631;28;20079;-88
2022/12/06 02:09:27;;;;;;;8.88;5.95;;;;;;;0.64;100.00;100861.75;6307530;28;20047;-88
2022/12/06 02:12:29;;;;;;;8.77;5.88;;;;;;;0.61;100.00;100861.03;6302623;28;20048;-88
2022/12/06 02:15:43;;;;;;;9.80;6.05;;;;;;;0.63;100.00;100860.09;6306035;28;20047;-88
2022/12/06 02:19:15;;;;;;;7.95;5.55;;;;;;;0.68;100.00;100861.66;6306798;28;20101;-89
2022/12/06 02:22:52;;;;;;;8.25;5.68;;;;;;;0.61;100.00;100863.56;6299477;28;20065;-89
2022/12/06 02:26:00;;;;;;;9.55;6.65;;;;;;;0.64;100.00;100853.28;6306180;28;20054;-88
2022/12/06 02:29:23;;;;;;;9.13;5.97;;;;;;;0.61;100.00;100861.84;6307018;28;20040;-88
2022/12/06 02:32:34;;;;;;;8.38;6.28;;;;;;;0.59;100.00;100850.88;6306370;28;20200;-90
2022/12/06 02:35:42;;;;;;;8.77;6.00;;;;;;;0.50;100.00;100855.41;6305313;28;20047;-89
2022/12/06 02:38:47;;;;;;;9.68;6.32;;;;;;;0.56;100.00;100857.78;6307094;28;20047;-90
2022/12/06 02:42:13;;;;;;;9.07;5.95;;;;;;;0.58;100.00;100856.03;6301463;28;20502;-90
2022/12/06 02:45:19;;;;;;;8.90;5.97;;;;;;;0.54;100.00;100857.81;6306421;28;20047;-92
2022/12/06 02:48:25;;;;;;;8.38;5.82;;;;;;;0.52;100.00;100862.16;6307520;28;20078;-93
2022/12/06 02:51:30;;;;;;;9.48;5.88;;;;;;;0.50;100.00;100863.91;6292994;28;20366;-92
2022/12/06 02:54:32;;;;;;;8.82;5.97;;;;;;;0.49;100.00;100864.78;6305067;28;20047;-93
2022/12/06 02:57:41;;;;;;;9.98;5.90;;;;;;;0.44;100.00;100864.09;6315452;28;20040;-92
2022/12/06 03:00:45;;;;;;;9.30;5.47;;;;;;;0.44;100.00;100866.66;6307794;28;20043;-93
2022/12/06 03:04:30;;;;;;;7.43;5.20;;;;;;;0.46;100.00;100869.97;6304392;28;20044;-94
2022/12/06 03:07:43;;;;;;;9.10;5.50;;;;;;;0.46;100.00;100874.25;6306166;28;20079;-92
2022/12/06 03:10:54;;;;;;;6.63;4.93;;;;;;;0.45;100.00;100875.97;6301391;28;20068;-91
2022/12/06 03:14:13;;;;;;;7.53;4.72;;;;;;;0.42;100.00;100870.94;6305969;28;20362;-93
2022/12/06 03:17:23;;;;;;;8.50;5.60;;;;;;;0.39;100.00;100869.34;6305135;28;20032;-92
2022/12/06 03:20:43;;;;;;;7.95;5.40;;;;;;;0.36;100.00;100863.50;6299211;28;20696;-91
2022/12/06 03:23:49;;;;;;;7.82;4.97;;;;;;;0.41;100.00;100859.94;6306222;28;20039;-90
2022/12/06 03:26:53;;;;;;;6.43;4.72;;;;;;;0.37;100.00;100860.94;6303949;28;20051;-90
2022/12/06 03:29:58;;;;;;;7.40;4.68;;;;;;;0.42;100.00;100858.22;6302530;28;20044;-90
2022/12/06 03:33:01;;;;;;;6.47;4.90;;;;;;;0.50;100.00;100866.47;6295076;28;20149;-90
2022/12/06 03:36:03;;;;;;;7.97;5.47;;;;;;;0.41;100.00;100867.56;6301679;28;20059;-90
2022/12/06 03:39:07;;;;;;;7.85;5.03;;;;;;;0.46;100.00;100872.53;6301171;28;20406;-91
2022/12/06 03:42:09;;;;;;;7.03;4.97;;;;;;;0.41;100.00;100871.84;6308238;28;20032;-90
2022/12/06 03:45:11;;;;;;;8.05;5.45;;;;;;;0.43;100.00;100865.00;6295103;28;20032;-90
2022/12/06 03:48:37;;;;;;;7.55;4.90;;;;;;;0.41;100.00;100862.47;6305847;28;20032;-87
2022/12/06 03:51:41;;;;;;;5.78;4.50;;;;;;;0.51;100.00;100860.47;6309047;28;20040;-90
2022/12/06 03:54:43;;;;;;;7.45;5.10;;;;;;;0.53;100.00;100858.72;6304588;28;20024;-90
2022/12/06 03:57:44;;;;;;;7.13;4.57;;;;;;;0.56;100.00;100855.25;6309168;28;20061;-90
2022/12/06 04:00:46;;;;;;;6.93;5.28;;;;;;;0.50;100.00;100853.72;6296222;28;20248;-90
2022/12/06 04:03:48;;;;;;;7.53;5.20;;;;;;;0.55;100.00;100849.31;6312411;28;20182;-91
2022/12/06 04:06:52;;;;;;;7.45;5.28;;;;;;;0.67;100.00;100849.78;6309304;28;20040;-92
2022/12/06 04:10:02;;;;;;;7.47;4.90;;;;;;;0.63;100.00;100837.16;6306915;28;20078;-91
2022/12/06 04:13:05;;;;;;;6.03;4.57;;;;;;;0.62;100.00;100847.38;6313859;28;20485;-91
2022/12/06 04:18:09;;;;;;;7.45;5.15;;;;;;;0.64;100.00;100846.47;6310763;28;20040;-91
2022/12/06 04:19:29;;;;;;;7.68;5.05;;;;;;;0.68;100.00;100848.94;6306477;28;20520;-91
2022/12/06 04:25:51;;;;;;;7.72;4.72;;;;;;;0.70;100.00;100845.44;6312936;28;20052;-91
2022/12/06 04:38:54;;;;;;;7.90;4.93;;;;;;;0.71;100.00;100833.53;6311795;28;20528;-91
2022/12/06 04:45:17;;;;;;;7.28;4.70;;;;;;;0.72;100.00;100830.09;6321473;28;20040;-90
2022/12/06 04:48:18;;;;;;;6.28;4.65;;;;;;;0.74;100.00;100834.25;6298619;28;20036;-91
2022/12/06 04:51:20;;;;;;;6.80;4.13;;;;;;;0.74;100.00;100831.69;6313029;28;20109;-92
2022/12/06 04:54:23;;;;;;;5.63;3.88;;;;;;;0.75;100.00;100817.28;6314205;28;20040;-93
2022/12/06 04:57:24;;;;;;;7.13;4.25;;;;;;;0.79;100.00;100826.47;6310424;28;20043;-93
2022/12/06 05:00:26;;;;;;;5.65;4.00;;;;;;;0.76;100.00;100818.94;6299657;28;20085;-93
2022/12/06 05:03:28;;;;;;;6.20;3.97;;;;;;;0.77;100.00;100823.97;6312034;28;20090;-93
2022/12/06 05:06:30;;;;;;;6.03;3.78;;;;;;;0.80;100.00;100825.59;6292222;28;20413;-93
2022/12/06 05:09:32;;;;;;;6.18;3.95;;;;;;;0.80;100.00;100817.94;6311613;28;21310;-93
2022/12/06 05:12:34;;;;;;;6.45;4.13;;;;;;;0.88;100.00;100831.25;6299432;28;20047;-93
2022/12/06 05:15:36;;;;;;;7.90;4.78;;;;;;;0.81;100.00;100827.25;6310640;28;20032;-94
2022/12/06 05:18:38;;;;;;;9.15;5.18;;;;;;;0.81;100.00;100822.16;6315181;28;20162;-94
2022/12/06 05:21:40;;;;;;;9.38;5.28;;;;;;;0.92;100.00;100822.63;6313213;28;20032;-93
2022/12/06 05:24:42;;;;;;;7.57;5.18;;;;;;;0.92;100.00;100816.69;6311236;28;20052;-94
2022/12/06 05:27:44;;;;;;;8.55;5.00;;;;;;;0.89;100.00;100817.63;6310040;28;20178;-94
2022/12/06 05:30:45;;;;;;;6.95;4.85;;;;;;;0.93;100.00;100818.38;6311482;28;20084;-93
2022/12/06 05:33:49;;;;;;;8.70;5.25;;;;;;;0.90;100.00;100816.75;6311366;28;20047;-93
2022/12/06 05:36:50;;;;;;;9.25;5.25;;;;;;;0.95;100.00;100814.88;6312713;28;20127;-93
2022/12/06 05:39:52;;;;;;;10.23;5.22;;;;;;;1.01;100.00;100819.75;6306648;28;20164;-93
2022/12/06 05:42:53;;;;;;;9.82;5.38;;;;;;;0.98;100.00;100814.75;6310249;28;20036;-92
2022/12/06 05:45:56;;;;;;;9.45;5.47;;;;;;;0.98;100.00;100808.84;6313080;28;20071;-93
2022/12/06 05:48:57;;;;;;;9.75;5.70;;;;;;;0.99;100.00;100811.31;6312239;28;20147;-92
2022/12/06 05:51:59;;;;;;;10.70;5.93;;;;;;;0.98;100.00;100807.13;6309158;28;20510;-92
2022/12/06 05:55:05;;;;;;;11.73;5.90;;;;;;;0.94;100.00;100807.28;6312196;28;20153;-92
2022/12/06 05:58:07;;;;;;;10.23;5.82;;;;;;;0.94;100.00;100797.91;6300577;28;20044;-93
2022/12/06 06:01:09;;;;;;;12.10;5.95;;;;;;;0.96;100.00;100798.69;6307376;28;20044;-93
2022/12/06 06:04:10;;;;;;;7.93;5.63;;;;;;;1.05;100.00;100800.91;6297230;28;20086;-92
2022/12/06 06:07:12;;;;;;;13.43;5.88;;;;;;;1.04;100.00;100806.91;6310500;28;20044;-92
2022/12/06 06:10:14;;;;;;;8.88;5.88;;;;;;;1.08;100.00;100808.47;6309499;28;20154;-92
2022/12/06 06:13:16;;;;;;;10.80;5.95;;;;;;;1.16;100.00;100808.19;6306053;28;20054;-92
2022/12/06 06:16:18;;;;;;;12.50;6.03;;;;;;;1.14;100.00;100798.94;6310423;28;20115;-93
2022/12/06 06:19:22;;;;;;;11.60;6.45;;;;;;;1.16;100.00;100797.97;6308409;28;20036;-92
2022/12/06 06:22:24;;;;;;;16.88;6.35;;;;;;;1.09;100.00;100796.53;6309664;28;20051;-93
2022/12/06 06:25:26;;;;;;;12.10;6.10;;;;;;;1.13;100.00;100803.19;6312738;28;20032;-92
2022/12/06 06:28:28;;;;;;;14.07;5.97;;;;;;;1.17;100.00;100801.34;6308784;28;20047;-93
2022/12/06 06:31:29;;;;;;;12.85;6.45;;;;;;;1.14;100.00;100797.19;6306849;28;20036;-93
2022/12/06 06:34:31;;;;;;;16.05;6.53;;;;;;;1.15;100.00;100803.97;6309523;28;20048;-92
2022/12/06 06:37:33;;;;;;;19.90;6.68;;;;;;;1.22;100.00;100796.97;6309078;28;20135;-92
2022/12/06 06:40:36;;;;;;;12.05;6.45;;;;;;;1.21;100.00;100797.81;6309212;28;20048;-92
2022/12/06 06:43:38;;;;;;;24.25;6.63;;;;;;;1.26;100.00;100799.31;6309260;28;20489;-92
2022/12/06 06:46:39;;;;;;;19.38;6.68;;;;;;;1.28;100.00;100796.72;6312035;28;20136;-92
2022/12/06 06:49:41;;;;;;;15.35;6.95;;;;;;;1.26;100.00;100791.66;6309340;28;20036;-92
2022/12/06 06:52:43;;;;;;;26.42;6.78;;;;;;;1.28;100.00;100801.81;6312505;28;20473;-92
2022/12/06 06:55:46;;;;;;;21.30;7.53;;;;;;;1.30;100.00;100802.59;6304217;28;20032;-92
2022/12/06 06:58:48;;;;;;;19.90;7.22;;;;;;;1.33;100.00;100794.84;6308570;28;20046;-92
2022/12/06 07:01:50;;;;;;;19.30;6.88;;;;;;;1.33;100.00;100794.84;6307416;28;20060;-92
2022/12/06 07:04:52;;;;;;;24.00;8.02;;;;;;;1.32;100.00;100800.84;6309162;28;20075;-92
2022/12/06 07:07:56;;;;;;;22.30;7.22;;;;;;;1.34;100.00;100809.25;6309352;28;20043;-92
2022/12/06 07:10:59;;;;;;;18.20;6.63;;;;;;;1.38;100.00;100820.19;6307154;28;20117;-92
2022/12/06 07:14:01;;;;;;;25.77;7.45;;;;;;;1.35;100.00;100821.13;6307151;28;20055;-92
2022/12/06 07:17:03;;;;;;;21.38;6.40;;;;;;;1.38;100.00;100830.38;6305309;28;20043;-92
2022/12/06 07:20:06;;;;;;;19.08;6.78;;;;;;;1.43;100.00;100829.31;6309956;28;20434;-92
2022/12/06 07:23:07;;;;;;;17.33;6.95;;;;;;;1.35;100.00;100833.03;6306226;28;20040;-92
2022/12/06 07:26:14;;;;;;;16.95;7.22;;;;;;;1.45;100.00;100822.44;6309094;28;20478;-92
2022/12/06 07:29:16;;;;;;;16.00;6.70;;;;;;;1.53;100.00;100829.81;6296176;28;20047;-92
2022/12/06 07:32:18;;;;;;;17.42;6.55;;;;;;;1.54;100.00;100835.75;6308780;28;20501;-92
2022/12/06 07:35:20;;;;;;;15.07;6.35;;;;;;;1.51;100.00;100824.75;6304507;28;20032;-93
2022/12/06 07:38:22;;;;;;;14.73;6.25;;;;;;;1.52;100.00;100835.81;6308741;28;20414;-93
2022/12/06 07:45:11;;;;;;;12.98;6.63;;;;;;;1.58;100.00;100839.84;6317995;28;20051;-92
2022/12/06 07:48:13;;;;;;;16.02;6.55;;;;;;;1.61;100.00;100832.09;6305846;28;20040;-92
2022/12/06 07:51:15;;;;;;;20.48;6.35;;;;;;;1.66;100.00;100830.19;6308784;28;20052;-92
2022/12/06 07:54:16;;;;;;;16.85;7.40;;;;;;;1.63;100.00;100830.31;6309561;28;20043;-92
2022/12/06 07:57:20;;;;;;;23.35;6.95;;;;;;;1.63;100.00;100835.41;6307750;28;20437;-92
2022/12/06 08:00:22;;;;;;;22.92;8.35;;;;;;;1.62;100.00;100833.75;6306401;28;20055;-92
2022/12/06 08:03:23;;;;;;;31.42;8.18;;;;;;;1.70;100.00;100839.41;6309908;28;20144;-92
2022/12/06 08:06:25;;;;;;;41.58;9.13;;;;;;;1.69;100.00;100836.03;6308728;28;20068;-91
2022/12/06 08:09:27;;;;;;;32.75;7.55;;;;;;;1.73;100.00;100836.75;6304560;28;20047;-91
2022/12/06 08:12:35;;;;;;;34.42;8.10;;;;;;;1.67;100.00;100840.34;6307467;28;20115;-91
2022/12/06 08:15:40;;;;;;;66.18;11.25;;;;;;;1.74;100.00;100838.41;6322216;28;20036;-92
2022/12/06 08:18:42;;;;;;;65.40;11.35;;;;;;;1.74;100.00;100840.97;6296751;28;20483;-92
2022/12/06 08:21:45;;;;;;;77.82;11.45;;;;;;;1.71;100.00;100844.47;6304514;28;20541;-92
2022/12/06 08:24:46;;;;;;;71.22;10.80;;;;;;;1.81;100.00;100850.03;6304969;28;20151;-92
2022/12/06 08:27:48;;;;;;;56.17;10.52;;;;;;;1.77;100.00;100856.16;6309370;28;20052;-92
2022/12/06 08:30:50;;;;;;;79.03;11.65;;;;;;;1.85;100.00;100855.88;6307426;28;20480;-92
2022/12/06 08:33:52;;;;;;;71.82;11.73;;;;;;;1.79;100.00;100853.53;6309728;28;20398;-92
2022/12/06 08:36:54;;;;;;;60.90;10.93;;;;;;;1.82;100.00;100859.38;6309443;28;20051;-92
2022/12/06 08:40:02;;;;;;;58.72;11.07;;;;;;;1.82;100.00;100856.81;6301842;28;20047;-92
2022/12/06 08:43:04;;;;;;;89.68;14.35;;;;;;;1.83;100.00;100858.47;6282731;28;21299;-91
2022/12/06 08:46:06;;;;;;;84.93;13.30;;;;;;;1.91;100.00;100859.03;6305361;28;20044;-92
2022/12/06 08:49:08;;;;;;;80.28;13.23;;;;;;;1.92;100.00;100862.41;6306731;28;20066;-91
2022/12/06 08:52:10;;;;;;;65.90;12.73;;;;;;;2.00;100.00;100867.22;6309008;28;20434;-91
2022/12/06 08:55:12;;;;;;;72.45;12.80;;;;;;;1.97;100.00;100863.06;6310825;28;20047;-91
2022/12/06 08:58:14;;;;;;;70.85;11.80;;;;;;;1.92;100.00;100863.25;6309264;28;20043;-92
2022/12/06 09:01:28;;;;;;;78.22;12.10;;;;;;;2.00;100.00;100867.22;6309223;28;20433;-91
2022/12/06 09:04:38;;;;;;;56.15;11.68;;;;;;;2.01;100.00;100868.88;6295692;28;20039;-91
2022/12/06 09:07:39;;;;;;;47.08;11.18;;;;;;;2.05;100.00;100865.31;6312358;28;20043;-91
2022/12/06 09:10:42;;;;;;;48.15;11.50;;;;;;;2.02;100.00;100865.44;6305770;28;20036;-91
2022/12/06 09:13:45;;;;;;;88.15;13.55;;;;;;;2.12;100.00;100877.81;6311441;28;20071;-91
2022/12/06 09:16:48;;;;;;;63.25;12.48;;;;;;;2.10;100.00;100876.19;6312039;28;20044;-91
2022/12/06 09:19:50;;;;;;;61.97;13.88;;;;;;;2.11;100.00;100875.28;6288539;28;20623;-91
2022/12/06 09:22:52;;;;;;;91.10;14.50;;;;;;;2.10;100.00;100873.66;6309665;28;20122;-90
2022/12/06 09:25:54;;;;;;;45.78;11.18;;;;;;;2.09;100.00;100877.09;6311262;28;20121;-91
2022/12/06 09:28:57;;;;;;;67.75;13.45;;;;;;;2.16;100.00;100878.50;6308214;28;20048;-91
2022/12/06 09:31:59;;;;;;;99.07;14.88;;;;;;;2.22;100.00;100882.56;6307540;28;20623;-90
2022/12/06 09:35:01;;;;;;;84.97;14.70;;;;;;;2.19;100.00;100877.56;6313044;28;20449;-91
2022/12/06 09:38:04;;;;;;;104.35;15.90;;;;;;;2.17;100.00;100876.81;6309213;28;20036;-91
2022/12/06 09:41:39;;;;;;;76.05;12.93;;;;;;;2.15;100.00;100877.69;6309338;28;20109;-90
2022/12/06 09:45:09;;;;;;;56.63;13.30;;;;;;;2.20;100.00;100880.06;6311216;28;20059;-91
2022/12/06 09:48:45;;;;;;;62.97;12.73;;;;;;;2.22;100.00;100870.63;6301748;28;20055;-91
2022/12/06 09:52:25;;;;;;;32.72;11.13;;;;;;;2.34;100.00;100865.03;6313254;28;20050;-90
2022/12/06 09:55:56;;;;;;;37.83;11.15;;;;;;;2.33;100.00;100872.75;6311148;28;20035;-91
2022/12/06 09:59:36;;;;;;;32.77;11.67;;;;;;;2.39;100.00;100866.59;6312574;28;20040;-91
2022/12/06 10:02:56;;;;;;;35.45;11.00;;;;;;;2.36;100.00;100865.81;6312198;28;20625;-91
2022/12/06 10:06:07;;;;;;;32.42;11.05;;;;;;;2.46;100.00;100861.16;6312915;28;20040;-91
2022/12/06 10:09:38;;;;;;;30.75;10.07;;;;;;;2.47;100.00;100864.56;6293202;28;20394;-91
2022/12/06 10:13:16;;;;;;;24.85;9.52;;;;;;;2.48;100.00;100861.09;6295144;28;20036;-91
2022/12/06 10:16:24;;;;;;;36.72;11.52;;;;;;;2.48;100.00;100848.31;6307326;28;20040;-91
2022/12/06 10:19:44;;;;;;;24.08;9.65;;;;;;;2.53;100.00;100852.34;6311910;28;20291;-91
2022/12/06 10:22:58;;;;;;;26.70;9.88;;;;;;;2.55;100.00;100853.13;6309670;28;20129;-91
2022/12/06 10:26:16;;;;;;;25.70;9.77;;;;;;;2.57;100.00;100845.41;6296925;28;20116;-91
2022/12/06 10:29:22;;;;;;;21.67;8.50;;;;;;;2.66;100.00;100842.47;6311937;28;20050;-90
2022/12/06 10:32:50;;;;;;;16.58;7.88;;;;;;;2.69;100.00;100842.34;6311077;28;20036;-91
2022/12/06 10:35:58;;;;;;;19.15;8.43;;;;;;;2.72;100.00;100841.38;6312372;28;20036;-90
2022/12/06 10:39:11;;;;;;;15.95;6.63;;;;;;;2.75;100.00;100844.63;6304988;28;20070;-90
2022/12/06 10:42:25;;;;;;;16.80;7.80;;;;;;;2.73;100.00;100845.59;6305945;28;20040;-91
2022/12/06 10:49:14;;;;;;;14.88;7.35;;;;;;;2.84;100.00;100856.22;6311166;28;20052;-91
2022/12/06 10:52:16;;;;;;;17.42;7.22;;;;;;;2.89;100.00;100840.69;6310432;28;20039;-91
2022/12/06 10:55:28;;;;;;;13.23;6.35;;;;;;;2.94;100.00;100836.22;6310077;28;20085;-90
2022/12/06 10:58:46;;;;;;;13.15;5.90;;;;;;;2.90;100.00;100837.22;6310292;28;20039;-90
2022/12/06 11:01:48;;;;;;;17.65;7.28;;;;;;;2.90;100.00;100845.72;6311080;28;20036;-90
2022/12/06 11:04:55;;;;;;;17.33;8.18;;;;;;;2.93;100.00;100848.19;6311332;28;20040;-90
2022/12/06 11:08:05;;;;;;;22.63;8.65;;;;;;;2.93;100.00;100844.75;6311911;28;20119;-89
2022/12/06 11:11:29;;;;;;;17.73;8.90;;;;;;;2.97;100.00;100843.75;6308497;28;20051;-89
2022/12/06 11:14:45;;;;;;;17.77;8.35;;;;;;;2.93;100.00;100844.75;6298838;28;20074;-89
2022/12/06 11:18:04;;;;;;;20.83;7.93;;;;;;;2.92;100.00;100849.06;6305116;28;20071;-90
2022/12/06 11:21:39;;;;;;;16.88;6.78;;;;;;;2.90;100.00;100842.34;6295524;28;20047;-89
2022/12/06 11:24:49;;;;;;;15.52;7.13;;;;;;;2.88;100.00;100841.56;6307128;28;20131;-89
2022/12/06 11:27:59;;;;;;;17.38;7.25;;;;;;;2.95;100.00;100845.53;6309656;28;20053;-90
2022/12/06 11:31:31;;;;;;;15.88;7.30;;;;;;;2.96;100.00;100840.38;6308757;28;20575;-89
2022/12/06 11:34:55;;;;;;;17.83;6.88;;;;;;;2.98;100.00;100842.84;6308502;28;20120;-89
2022/12/06 11:38:02;;;;;;;13.07;6.53;;;;;;;2.99;100.00;100849.63;6309825;28;20051;-89
2022/12/06 11:41:09;;;;;;;12.02;6.40;;;;;;;2.97;100.00;100843.75;6307293;28;20040;-88
2022/12/06 11:44:20;;;;;;;13.80;6.93;;;;;;;2.91;100.00;100842.28;6301229;28;20037;-89
2022/12/06 11:47:23;;;;;;;15.13;7.10;;;;;;;2.92;100.00;100838.81;6298366;28;20071;-89
2022/12/06 11:50:28;;;;;;;17.13;8.18;;;;;;;2.91;100.00;100842.28;6302209;28;20044;-88
2022/12/06 11:53:58;;;;;;;18.65;7.93;;;;;;;2.94;100.00;100844.72;6306940;28;20343;-89
2022/12/06 11:57:15;;;;;;;21.13;9.17;;;;;;;2.91;100.00;100844.03;6305480;28;20040;-88
2022/12/06 12:00:24;;;;;;;16.40;7.80;;;;;;;3.00;100.00;100839.31;6307522;28;20251;-89
2022/12/06 12:03:35;;;;;;;16.88;7.78;;;;;;;2.98;100.00;100836.03;6306616;28;20065;-88
2022/12/06 12:06:37;;;;;;;17.48;8.32;;;;;;;3.02;100.00;100846.94;6309388;28;20490;-88
2022/12/06 12:09:58;;;;;;;17.52;8.07;;;;;;;2.94;100.00;100841.34;6309586;28;20039;-89
2022/12/06 12:16:42;;;;;;;19.95;9.43;;;;;;;2.88;100.00;100834.75;6306783;28;21052;-88
2022/12/06 12:19:56;;;;;;;17.05;8.35;;;;;;;2.97;100.00;100844.56;6306385;28;20036;-88
2022/12/06 12:23:24;;;;;;;16.85;7.65;;;;;;;2.97;100.00;100844.56;6310842;28;20036;-88
2022/12/06 12:26:55;;;;;;;17.58;8.73;;;;;;;2.97;100.00;100843.75;6312746;28;20505;-88
2022/12/06 12:30:15;;;;;;;18.88;9.43;;;;;;;2.88;100.00;100831.34;6235058;28;20503;-88
2022/12/06 12:33:19;;;;;;;20.08;9.27;;;;;;;2.83;100.00;100833.25;6220661;28;20060;-88
2022/12/06 12:36:27;;;;;;;15.68;9.40;;;;;;;2.88;100.00;100831.34;6232474;28;20057;-88
2022/12/06 12:39:52;;;;;;;18.92;9.00;;;;;;;2.91;100.00;100829.50;6211013;28;20062;-88
2022/12/06 12:43:28;;;;;;;14.93;7.80;;;;;;;2.96;100.00;100824.22;6230337;28;20049;-88
2022/12/06 12:46:34;;;;;;;16.00;7.95;;;;;;;2.99;100.00;100830.00;6162996;28;20058;-88
2022/12/06 12:49:37;;;;;;;15.85;9.18;;;;;;;2.97;100.00;100825.84;6160167;28;20145;-88
2022/12/06 12:52:40;;;;;;;18.23;8.70;;;;;;;3.01;100.00;100824.84;6161920;28;20082;-87
2022/12/06 12:55:45;;;;;;;18.80;9.23;;;;;;;3.01;100.00;100822.28;6159429;28;20057;-87
2022/12/06 12:58:50;;;;;;;17.77;9.18;;;;;;;3.07;100.00;100832.22;6168385;28;20051;-87
2022/12/06 13:02:01;;;;;;;14.25;7.55;;;;;;;3.04;100.00;100826.44;6162203;28;20076;-87
2022/12/06 13:05:14;;;;;;;17.02;8.70;;;;;;;3.01;100.00;100835.88;6173070;28;20049;-88
2022/12/06 13:08:36;;;;;;;16.60;8.48;;;;;;;3.03;100.00;100828.13;6259145;28;20048;-87
2022/12/06 13:11:45;;;;;;;16.17;7.93;;;;;;;3.04;100.00;100839.22;6243760;28;20428;-87
2022/12/06 13:14:59;;;;;;;14.70;8.02;;;;;;;3.00;100.00;100835.94;6250305;28;20052;-88
2022/12/06 13:18:20;;;;;;;15.30;8.02;;;;;;;2.95;100.00;100827.63;6258504;28;20037;-88
2022/12/06 13:21:31;;;;;;;13.03;7.67;;;;;;;2.94;100.00;100821.69;6260898;28;20068;-87
2022/12/06 13:24:36;;;;;;;17.98;7.93;;;;;;;2.93;100.00;100824.31;6310772;28;20047;-87
2022/12/06 13:27:49;;;;;;;13.43;7.50;;;;;;;2.93;100.00;100819.19;6310370;28;20044;-87
2022/12/06 13:30:59;;;;;;;12.73;6.80;;;;;;;2.95;100.00;100819.97;6310691;28;20421;-87
2022/12/06 13:34:33;;;;;;;14.37;7.50;;;;;;;2.96;100.00;100824.22;6309860;28;20170;-87
2022/12/06 13:38:16;;;;;;;15.38;7.97;;;;;;;2.94;100.00;100826.81;6308995;28;20317;-87
2022/12/06 13:45:05;;;;;;;16.60;8.20;;;;;;;2.93;100.00;100817.50;6224428;28;20216;-87
2022/12/06 13:48:25;;;;;;;16.10;7.50;;;;;;;2.89;100.00;100828.75;6227140;28;21493;-87
2022/12/06 13:51:30;;;;;;;17.20;8.52;;;;;;;2.86;100.00;100840.81;6229629;28;20060;-87
2022/12/06 13:54:32;;;;;;;16.08;8.43;;;;;;;2.93;100.00;100845.63;6229979;28;20601;-87
2022/12/06 13:57:34;;;;;;;15.30;7.57;;;;;;;2.89;100.00;100833.03;6230851;28;20076;-87
2022/12/06 14:00:42;;;;;;;15.57;8.18;;;;;;;2.83;100.00;100831.53;6228408;28;20129;-87
2022/12/06 14:03:54;;;;;;;15.13;8.00;;;;;;;2.87;100.00;100829.69;6231700;28;20352;-87
2022/12/06 14:07:10;;;;;;;16.25;8.45;;;;;;;2.86;100.00;100828.88;6232054;28;20077;-87
2022/12/06 14:10:14;;;;;;;18.67;8.80;;;;;;;2.85;100.00;100834.03;6213571;28;20710;-87
2022/12/06 14:13:18;;;;;;;17.52;7.78;;;;;;;2.79;100.00;100833.41;6231033;28;20050;-87
2022/12/06 14:16:45;;;;;;;16.75;7.80;;;;;;;2.83;100.00;100836.66;6210559;28;20685;-87
2022/12/06 14:19:48;;;;;;;15.43;8.25;;;;;;;2.74;100.00;100849.84;6307964;28;20101;-87
2022/12/06 14:22:50;;;;;;;14.15;7.55;;;;;;;2.69;100.00;100842.34;6310472;28;20044;-87
2022/12/06 14:26:11;;;;;;;15.90;7.97;;;;;;;2.74;100.00;100840.44;6304267;28;20146;-87
2022/12/06 14:29:23;;;;;;;11.13;6.68;;;;;;;2.68;100.00;100838.13;6309364;28;20493;-87
2022/12/06 14:32:49;;;;;;;13.65;6.78;;;;;;;2.66;100.00;100851.84;6310106;28;20282;-87
2022/12/06 14:35:53;;;;;;;11.90;6.70;;;;;;;2.67;100.00;100844.13;6309743;28;20044;-87
2022/12/06 14:39:01;;;;;;;14.07;7.15;;;;;;;2.58;100.00;100847.06;6310853;28;20444;-87
2022/12/06 14:45:38;;;;;;;11.98;6.10;;;;;;;2.51;100.00;100853.31;6301839;28;20032;-87
2022/12/06 14:52:01;;;;;;;11.18;6.18;;;;;;;2.37;100.00;100864.91;6305336;28;20051;-86
2022/12/06 14:55:14;;;;;;;10.15;5.85;;;;;;;2.35;100.00;100863.31;6305783;28;20439;-86
2022/12/06 14:58:21;;;;;;;11.00;5.30;;;;;;;2.36;100.00;100872.63;6306574;28;20347;-86
2022/12/06 15:01:30;;;;;;;10.43;5.55;;;;;;;2.28;100.00;100861.88;6300375;28;20398;-87
2022/12/06 15:04:38;;;;;;;8.00;4.90;;;;;;;2.32;100.00;100866.81;6306827;28;20028;-86